Time;durP1;ratioP1;P1;durP2;ratioP2;P2;SDS_P1;SDS_P2;PMS_P1;PMS_P2;Temp;Humidity;BMP_temperature;BMP_pressure;BME280_temperature;BME280_humidity;BME280_pressure;Samples;Min_cycle;Max_cycle;Signal;HPM_P1;HPM_P2
2021/12/29 00:00:09;;;;;;;21.45;12.18;;;;;;;8.26;100.00;100025.19;5107327;28;20028;-83
2021/12/29 00:02:34;;;;;;;19.67;11.85;;;;;;;8.23;100.00;100022.81;5091151;28;20111;-84
2021/12/29 00:05:00;;;;;;;17.85;11.77;;;;;;;8.26;100.00;100026.97;5085261;28;20098;-84
2021/12/29 00:07:25;;;;;;;18.98;12.77;;;;;;;8.26;100.00;100024.38;5109338;28;20057;-85
2021/12/29 00:09:51;;;;;;;19.05;12.32;;;;;;;8.27;100.00;100033.88;5091671;28;20024;-84
2021/12/29 00:12:24;;;;;;;20.00;11.85;;;;;;;8.25;100.00;100041.03;5110145;28;20027;-84
2021/12/29 00:14:49;;;;;;;;;;;;;;;8.32;100.00;100052.72;5084586;28;20069;-85
2021/12/29 00:17:15;;;;;;;17.73;10.77;;;;;;;8.26;100.00;100061.06;5091297;28;19912;-84
2021/12/29 00:19:40;;;;;;;18.27;10.10;;;;;;;8.24;100.00;100073.44;5107840;28;20106;-84
2021/12/29 00:22:05;;;;;;;13.13;10.13;;;;;;;8.22;100.00;100076.19;5109174;28;20028;-84
2021/12/29 00:24:31;;;;;;;13.52;10.73;;;;;;;8.23;100.00;100093.56;5109323;28;20453;-84
2021/12/29 00:26:56;;;;;;;14.95;10.55;;;;;;;8.24;100.00;100102.25;5091803;28;20023;-84
2021/12/29 00:29:21;;;;;;;12.73;10.40;;;;;;;8.23;100.00;100097.97;5108429;28;20558;-84
2021/12/29 00:31:47;;;;;;;17.23;11.52;;;;;;;8.22;100.00;100084.03;5085508;28;20036;-84
2021/12/29 00:34:12;;;;;;;17.23;10.95;;;;;;;8.22;100.00;100093.69;5109420;28;20023;-84
2021/12/29 00:36:38;;;;;;;18.23;11.57;;;;;;;8.23;100.00;100095.34;5083018;28;20458;-84
2021/12/29 00:39:03;;;;;;;16.42;12.27;;;;;;;8.24;100.00;100099.66;5098061;28;20028;-84
2021/12/29 00:41:28;;;;;;;18.77;12.35;;;;;;;8.22;100.00;100110.25;5084780;28;20032;-84
2021/12/29 00:43:55;;;;;;;18.27;12.77;;;;;;;8.20;100.00;100117.38;5108097;28;20028;-82
2021/12/29 00:46:20;;;;;;;17.80;12.98;;;;;;;8.20;100.00;100122.63;5090753;28;20023;-85
2021/12/29 00:48:47;;;;;;;19.30;13.38;;;;;;;8.21;100.00;100133.94;5091545;28;20046;-84
2021/12/29 00:51:13;;;;;;;20.70;13.50;;;;;;;8.21;100.00;100129.53;5088984;28;20031;-84
2021/12/29 00:53:39;;;;;;;20.45;13.70;;;;;;;8.20;100.00;100137.50;5104113;28;20027;-84
2021/12/29 00:56:05;;;;;;;19.83;13.95;;;;;;;8.17;100.00;100141.19;5091769;28;20696;-84
2021/12/29 00:58:31;;;;;;;26.17;15.13;;;;;;;8.20;100.00;100145.38;5079130;28;20282;-84
2021/12/29 01:00:58;;;;;;;22.48;14.57;;;;;;;8.18;100.00;100151.56;5105263;28;20106;-84
2021/12/29 01:03:24;;;;;;;18.30;14.82;;;;;;;8.16;100.00;100150.84;5109129;28;20510;-84
2021/12/29 01:05:50;;;;;;;25.98;15.50;;;;;;;8.18;100.00;100162.06;5109530;28;20023;-85
2021/12/29 01:08:15;;;;;;;23.63;14.63;;;;;;;8.16;100.00;100163.94;5090603;28;20023;-84
2021/12/29 01:10:44;;;;;;;23.65;15.57;;;;;;;8.18;100.00;100162.06;5085468;28;20536;-83
2021/12/29 01:13:18;;;;;;;24.42;15.30;;;;;;;8.19;100.00;100173.38;5091676;28;20102;-83
2021/12/29 01:15:58;;;;;;;21.95;15.00;;;;;;;8.17;100.00;100175.25;5108728;28;20507;-83
2021/12/29 01:18:26;;;;;;;26.80;15.95;;;;;;;8.16;100.00;100184.91;5108751;28;20114;-83
2021/12/29 01:20:52;;;;;;;24.15;15.50;;;;;;;8.17;100.00;100191.81;5110141;28;20033;-83
2021/12/29 01:23:20;;;;;;;24.10;15.27;;;;;;;8.18;100.00;100190.03;5091483;28;20040;-83
2021/12/29 01:25:49;;;;;;;21.80;16.20;;;;;;;8.18;100.00;100203.97;5083034;28;20114;-83
2021/12/29 01:28:14;;;;;;;24.02;15.63;;;;;;;8.17;100.00;100207.53;5099990;28;20020;-83
2021/12/29 01:30:39;;;;;;;26.98;15.60;;;;;;;8.16;100.00;100200.63;5109444;28;20035;-83
2021/12/29 01:33:06;;;;;;;25.23;15.70;;;;;;;8.18;100.00;100214.47;5108875;28;20016;-83
2021/12/29 01:35:38;;;;;;;23.75;15.07;;;;;;;8.18;100.00;100232.81;5109031;28;20778;-83
2021/12/29 01:38:05;;;;;;;24.23;15.47;;;;;;;8.17;100.00;100236.38;5105865;28;20028;-82
2021/12/29 01:40:31;;;;;;;20.30;13.95;;;;;;;8.17;100.00;100249.47;5086613;28;20357;-79
2021/12/29 01:42:58;;;;;;;23.60;15.10;;;;;;;8.17;100.00;100249.47;5108272;28;20106;-79
2021/12/29 01:45:24;;;;;;;19.00;13.93;;;;;;;8.16;100.00;100258.28;5082907;28;20027;-82
2021/12/29 01:47:49;;;;;;;23.13;14.55;;;;;;;8.18;100.00;100256.38;5104002;28;20028;-82
2021/12/29 01:50:15;;;;;;;22.75;14.25;;;;;;;8.18;100.00;100250.31;5105156;28;20035;-82
2021/12/29 01:52:42;;;;;;;23.67;14.05;;;;;;;8.18;100.00;100255.53;5102555;28;20092;-82
2021/12/29 01:55:14;;;;;;;22.90;14.57;;;;;;;8.20;100.00;100265.91;5108828;28;20399;-82
2021/12/29 01:57:43;;;;;;;21.05;14.35;;;;;;;8.17;100.00;100265.19;5112888;28;20023;-82
2021/12/29 02:00:15;;;;;;;21.80;13.48;;;;;;;8.18;100.00;100272.09;5094178;28;20078;-82
2021/12/29 02:02:40;;;;;;;23.08;13.90;;;;;;;8.17;100.00;100280.91;5097557;28;20035;-82
2021/12/29 02:05:06;;;;;;;23.08;13.52;;;;;;;8.18;100.00;100274.72;5110377;28;20068;-82
2021/12/29 02:07:31;;;;;;;23.80;13.90;;;;;;;8.18;100.00;100276.50;5111340;28;20035;-82
2021/12/29 02:09:57;;;;;;;25.67;14.57;;;;;;;8.16;100.00;100284.47;5112853;28;20022;-82
2021/12/29 02:12:22;;;;;;;23.73;14.27;;;;;;;8.18;100.00;100287.00;5112819;28;20023;-83
2021/12/29 02:14:48;;;;;;;22.23;13.68;;;;;;;8.15;100.00;100293.28;5112458;28;20140;-82
2021/12/29 02:17:13;;;;;;;23.85;15.10;;;;;;;8.18;100.00;100300.94;5112087;28;20460;-82
2021/12/29 02:19:46;;;;;;;30.70;16.20;;;;;;;8.17;100.00;100298.41;5111448;28;20038;-82
2021/12/29 02:22:32;;;;;;;31.55;16.73;;;;;;;8.16;100.00;100299.38;5082439;28;20464;-84
2021/12/29 02:25:58;;;;;;;23.50;16.33;;;;;;;8.14;100.00;100296.88;5067337;28;20186;-85
2021/12/29 02:27:54;;;;;;;22.45;16.15;;;;;;;8.17;100.00;100301.88;5056651;28;20036;-83
2021/12/29 02:30:26;;;;;;;26.60;16.40;;;;;;;8.17;100.00;100301.88;5067214;28;20053;-82
2021/12/29 02:32:55;;;;;;;25.95;16.45;;;;;;;8.16;100.00;100302.81;5072066;28;20537;-83
2021/12/29 02:35:22;;;;;;;24.30;17.40;;;;;;;8.13;100.00;100305.66;5066939;28;20485;-83
2021/12/29 02:37:47;;;;;;;26.98;17.77;;;;;;;8.15;100.00;100298.53;5070180;28;20031;-83
2021/12/29 02:40:14;;;;;;;24.23;17.00;;;;;;;8.14;100.00;100312.59;5071725;28;20020;-82
2021/12/29 02:42:41;;;;;;;26.85;16.90;;;;;;;8.11;100.00;100312.81;5066644;28;20044;-83
2021/12/29 02:45:14;;;;;;;22.35;16.20;;;;;;;8.12;100.00;100313.66;5065321;28;20120;-83
2021/12/29 02:47:40;;;;;;;28.02;16.70;;;;;;;8.10;100.00;100307.69;5070785;28;20056;-83
2021/12/29 02:50:06;;;;;;;24.67;16.63;;;;;;;8.12;100.00;100309.25;5070598;28;20020;-83
2021/12/29 02:52:32;;;;;;;25.73;15.55;;;;;;;8.11;100.00;100306.72;5069239;28;20033;-83
2021/12/29 02:54:57;;;;;;;26.92;16.63;;;;;;;8.10;100.00;100305.91;5064716;28;20593;-82
2021/12/29 02:57:23;;;;;;;23.60;16.25;;;;;;;8.08;100.00;100302.56;5069492;28;20103;-82
2021/12/29 02:59:48;;;;;;;23.13;16.48;;;;;;;8.09;100.00;100313.88;5070801;28;20096;-83
2021/12/29 03:02:13;;;;;;;22.35;17.02;;;;;;;8.10;100.00;100332.09;5066217;28;20028;-83
2021/12/29 03:04:39;;;;;;;26.80;16.38;;;;;;;8.09;100.00;100329.59;5068550;28;20024;-82
2021/12/29 03:07:04;;;;;;;24.83;16.55;;;;;;;8.07;100.00;100327.09;5069407;28;20556;-83
2021/12/29 03:09:30;;;;;;;25.42;16.98;;;;;;;8.07;100.00;100337.56;5070761;28;20029;-82
2021/12/29 03:11:56;;;;;;;24.50;16.83;;;;;;;8.08;100.00;100338.41;5064049;28;20030;-83
2021/12/29 03:14:22;;;;;;;28.25;16.58;;;;;;;8.07;100.00;100352.44;5070357;28;20024;-82
2021/12/29 03:16:48;;;;;;;26.83;17.75;;;;;;;8.09;100.00;100366.28;5069765;28;20039;-82
2021/12/29 03:19:13;;;;;;;25.85;17.73;;;;;;;8.09;100.00;100364.50;5069748;28;20032;-82
2021/12/29 03:21:40;;;;;;;28.65;17.15;;;;;;;8.09;100.00;100372.34;5070969;28;20433;-81
2021/12/29 03:24:07;;;;;;;24.40;17.40;;;;;;;8.07;100.00;100362.91;5080852;28;20070;-82
2021/12/29 03:26:33;;;;;;;28.15;18.65;;;;;;;8.05;100.00;100372.69;5081292;28;20509;-82
2021/12/29 03:28:59;;;;;;;27.83;18.10;;;;;;;8.05;100.00;100384.00;5088599;28;20070;-82
2021/12/29 03:31:26;;;;;;;30.73;18.58;;;;;;;8.05;100.00;100381.38;5090096;28;20060;-84
2021/12/29 03:33:51;;;;;;;27.83;17.17;;;;;;;8.05;100.00;100381.38;5090501;28;20102;-82
2021/12/29 03:36:18;;;;;;;27.45;17.23;;;;;;;8.04;100.00;100389.34;5090932;28;20166;-83
2021/12/29 03:38:43;;;;;;;24.02;16.95;;;;;;;8.05;100.00;100391.84;5089221;28;20028;-83
2021/12/29 03:41:14;;;;;;;30.77;17.20;;;;;;;8.03;100.00;100393.75;5091038;28;20036;-83
2021/12/29 03:43:41;;;;;;;25.58;17.10;;;;;;;8.03;100.00;100398.16;5084520;28;20027;-83
2021/12/29 03:46:08;;;;;;;30.50;17.38;;;;;;;8.02;100.00;100402.56;5089451;28;20028;-80
2021/12/29 03:48:36;;;;;;;25.52;16.80;;;;;;;8.02;100.00;100404.34;5081678;28;20043;-79
2021/12/29 03:51:03;;;;;;;28.98;17.30;;;;;;;8.00;100.00;100404.41;5089318;28;20034;-83
2021/12/29 03:53:29;;;;;;;25.80;16.67;;;;;;;7.99;100.00;100399.28;5074427;28;20451;-83
2021/12/29 03:55:54;;;;;;;28.95;18.13;;;;;;;7.99;100.00;100409.75;5090341;28;20112;-83
2021/12/29 03:58:21;;;;;;;29.88;17.52;;;;;;;8.02;100.00;100427.91;5088922;28;20026;-83
2021/12/29 04:00:49;;;;;;;28.80;16.85;;;;;;;7.99;100.00;100421.06;5083638;28;20047;-83
2021/12/29 04:03:14;;;;;;;28.55;16.52;;;;;;;7.99;100.00;100412.38;5082236;28;20054;-82
2021/12/29 04:05:41;;;;;;;29.40;17.17;;;;;;;7.96;100.00;100413.44;5088624;28;20012;-82
2021/12/29 04:08:06;;;;;;;27.98;17.00;;;;;;;8.01;100.00;100421.84;5088956;28;20034;-83
2021/12/29 04:10:32;;;;;;;26.90;16.98;;;;;;;7.99;100.00;100418.47;5089389;28;20028;-83
2021/12/29 04:12:59;;;;;;;26.80;16.98;;;;;;;8.00;100.00;100420.13;5083388;28;20026;-83
2021/12/29 04:15:25;;;;;;;27.73;17.08;;;;;;;7.94;100.00;100417.09;5070028;28;20058;-82
2021/12/29 04:17:51;;;;;;;30.25;18.27;;;;;;;7.95;100.00;100419.63;5088934;28;20043;-81
2021/12/29 04:23:08;;;;;;;30.63;18.08;;;;;;;8.00;100.00;100435.84;5095332;28;20101;-82
2021/12/29 04:25:37;;;;;;;24.25;17.80;;;;;;;7.99;100.00;100442.03;5109807;28;20026;-81
2021/12/29 04:28:09;;;;;;;25.05;16.48;;;;;;;7.98;100.00;100437.75;5070763;28;20023;-82
2021/12/29 04:30:35;;;;;;;30.67;17.98;;;;;;;7.97;100.00;100443.94;5082618;28;20438;-82
2021/12/29 04:33:01;;;;;;;25.48;16.98;;;;;;;7.98;100.00;100442.97;5109917;28;20099;-81
2021/12/29 04:35:26;;;;;;;27.25;17.20;;;;;;;7.96;100.00;100449.28;5085909;28;20492;-82
2021/12/29 04:37:52;;;;;;;27.52;16.67;;;;;;;7.95;100.00;100458.91;5107660;28;20139;-82
2021/12/29 04:40:18;;;;;;;24.02;17.25;;;;;;;7.95;100.00;100461.53;5109883;28;20111;-82
2021/12/29 04:42:44;;;;;;;23.55;16.05;;;;;;;7.96;100.00;100470.22;5109279;28;20371;-82
2021/12/29 04:45:10;;;;;;;25.83;16.80;;;;;;;7.98;100.00;100470.97;5084107;28;20446;-82
2021/12/29 04:47:40;;;;;;;27.00;16.80;;;;;;;7.97;100.00;100483.22;5109188;28;20020;-84
2021/12/29 04:50:13;;;;;;;25.92;16.67;;;;;;;7.97;100.00;100477.97;5091754;28;20359;-82
2021/12/29 04:52:39;;;;;;;24.55;16.88;;;;;;;7.96;100.00;100476.31;5101836;28;20115;-79
2021/12/29 04:55:05;;;;;;;25.88;17.95;;;;;;;7.97;100.00;100490.25;5091728;28;20102;-82
2021/12/29 04:57:31;;;;;;;25.30;16.63;;;;;;;7.98;100.00;100491.91;5108531;28;20061;-82
2021/12/29 04:59:56;;;;;;;29.67;17.17;;;;;;;7.95;100.00;100495.59;5109933;28;20023;-81
2021/12/29 05:02:21;;;;;;;22.67;16.73;;;;;;;7.94;100.00;100490.44;5103721;28;20024;-83
2021/12/29 05:04:56;;;;;;;23.85;16.35;;;;;;;7.96;100.00;100493.81;5108289;28;20073;-84
2021/12/29 05:10:06;;;;;;;26.48;16.73;;;;;;;7.95;100.00;100506.06;5107191;28;20034;-81
2021/12/29 05:12:32;;;;;;;23.50;16.10;;;;;;;7.95;100.00;100495.59;5108886;28;20031;-83
2021/12/29 05:14:57;;;;;;;30.13;16.23;;;;;;;7.94;100.00;100485.22;5108898;28;20467;-82
2021/12/29 05:17:22;;;;;;;22.52;16.42;;;;;;;7.92;100.00;100485.31;5100598;28;20110;-82
2021/12/29 05:19:48;;;;;;;30.92;16.63;;;;;;;7.91;100.00;100483.66;5100588;28;20027;-82
2021/12/29 05:22:13;;;;;;;30.75;16.83;;;;;;;7.89;100.00;100496.00;5090580;28;20023;-81
2021/12/29 05:24:39;;;;;;;26.20;16.33;;;;;;;7.91;100.00;100498.53;5105684;28;20104;-79
2021/12/29 05:27:04;;;;;;;27.10;16.58;;;;;;;7.91;100.00;100496.75;5105135;28;20039;-82
2021/12/29 05:29:29;;;;;;;22.10;15.50;;;;;;;7.89;100.00;100500.41;5108153;28;20063;-81
2021/12/29 05:31:55;;;;;;;26.08;15.75;;;;;;;7.84;100.00;100498.09;5103436;28;20096;-82
2021/12/29 05:34:20;;;;;;;24.38;15.32;;;;;;;7.84;100.00;100498.09;5101518;28;20031;-82
2021/12/29 05:36:46;;;;;;;22.10;15.27;;;;;;;7.83;100.00;100501.66;5112813;28;20020;-82
2021/12/29 05:39:12;;;;;;;27.65;15.48;;;;;;;7.87;100.00;100518.84;5111959;28;20019;-83
2021/12/29 05:41:38;;;;;;;29.30;16.58;;;;;;;7.85;100.00;100516.34;5105569;28;20024;-82
2021/12/29 05:44:03;;;;;;;26.33;14.93;;;;;;;7.78;100.00;100509.00;5112779;28;20104;-83
2021/12/29 05:46:29;;;;;;;22.88;14.55;;;;;;;7.83;100.00;100517.38;5112046;28;20023;-79
2021/12/29 05:48:54;;;;;;;25.50;15.18;;;;;;;7.82;100.00;100515.72;5113109;28;20051;-83
2021/12/29 05:51:20;;;;;;;26.00;14.98;;;;;;;7.82;100.00;100516.56;5093881;28;20040;-82
2021/12/29 05:53:45;;;;;;;26.65;14.85;;;;;;;7.81;100.00;100508.78;5112746;28;20038;-82
2021/12/29 05:56:14;;;;;;;28.42;14.68;;;;;;;7.79;100.00;100500.22;5113616;28;20031;-83
2021/12/29 05:58:39;;;;;;;21.90;14.35;;;;;;;7.79;100.00;100510.69;5104083;28;20386;-82
2021/12/29 06:01:05;;;;;;;30.05;14.90;;;;;;;7.77;100.00;100518.66;5112638;28;20099;-79
2021/12/29 06:03:31;;;;;;;24.08;14.43;;;;;;;7.80;100.00;100512.34;5112978;28;20110;-83
2021/12/29 06:05:56;;;;;;;28.52;13.90;;;;;;;7.78;100.00;100514.25;5112156;28;20020;-83
2021/12/29 06:08:22;;;;;;;21.73;14.10;;;;;;;7.77;100.00;100512.56;5106868;28;20034;-82
2021/12/29 06:10:47;;;;;;;25.27;14.38;;;;;;;7.74;100.00;100516.22;5112696;28;20498;-83
2021/12/29 06:13:13;;;;;;;22.05;13.63;;;;;;;7.78;100.00;100527.34;5112775;28;20031;-82
2021/12/29 06:15:38;;;;;;;24.38;14.10;;;;;;;7.70;100.00;100527.03;5110821;28;20198;-83
2021/12/29 06:18:04;;;;;;;23.08;13.32;;;;;;;7.75;100.00;100531.00;5089171;28;20027;-81
2021/12/29 06:20:29;;;;;;;23.95;13.95;;;;;;;7.76;100.00;100542.31;5111894;28;20110;-83
2021/12/29 06:22:55;;;;;;;25.77;13.68;;;;;;;7.74;100.00;100552.91;5112102;28;20047;-83
2021/12/29 06:25:21;;;;;;;25.95;13.30;;;;;;;7.71;100.00;100544.41;5111905;28;20020;-83
2021/12/29 06:27:46;;;;;;;21.20;12.80;;;;;;;7.71;100.00;100552.25;5084891;28;20102;-83
2021/12/29 06:30:16;;;;;;;19.30;12.25;;;;;;;7.72;100.00;100561.81;5100195;28;20059;-83
2021/12/29 06:32:43;;;;;;;17.30;12.15;;;;;;;7.70;100.00;100564.53;5107996;28;20032;-83
2021/12/29 06:35:10;;;;;;;18.92;12.18;;;;;;;7.69;100.00;100551.53;5106310;28;20119;-83
2021/12/29 06:37:35;;;;;;;26.38;11.98;;;;;;;7.73;100.00;100563.47;5103503;28;20517;-83
2021/12/29 06:40:01;;;;;;;23.30;12.48;;;;;;;7.69;100.00;100562.00;5111571;28;20028;-83
2021/12/29 06:42:26;;;;;;;21.92;12.23;;;;;;;7.73;100.00;100568.72;5104776;28;20110;-83
2021/12/29 06:44:51;;;;;;;20.40;12.23;;;;;;;7.69;100.00;100556.78;5090629;28;20020;-83
2021/12/29 06:47:17;;;;;;;21.45;11.48;;;;;;;7.71;100.00;100566.19;5103475;28;20410;-83
2021/12/29 06:49:44;;;;;;;22.73;12.13;;;;;;;7.71;100.00;100574.06;5092195;28;20051;-83
2021/12/29 06:52:09;;;;;;;21.20;12.18;;;;;;;7.70;100.00;100580.22;5088459;28;20024;-83
2021/12/29 06:54:36;;;;;;;19.73;11.80;;;;;;;7.71;100.00;100578.44;5111340;28;20449;-83
2021/12/29 06:57:02;;;;;;;22.73;11.93;;;;;;;7.68;100.00;100576.03;5111039;28;20061;-83
2021/12/29 06:59:27;;;;;;;21.00;11.90;;;;;;;7.66;100.00;100570.06;5093853;28;20032;-83
2021/12/29 07:01:53;;;;;;;19.63;11.52;;;;;;;7.72;100.00;100567.03;5086856;28;20515;-80
2021/12/29 07:04:18;;;;;;;20.75;12.25;;;;;;;7.70;100.00;100564.53;5110706;28;20475;-79
2021/12/29 07:06:44;;;;;;;22.27;12.52;;;;;;;7.67;100.00;100563.88;5112098;28;20493;-83
2021/12/29 07:09:10;;;;;;;20.85;11.95;;;;;;;7.69;100.00;100578.56;5106094;28;20027;-83
2021/12/29 07:11:39;;;;;;;17.20;11.77;;;;;;;7.68;100.00;100581.28;5092899;28;20030;-83
2021/12/29 07:14:06;;;;;;;21.88;12.02;;;;;;;7.68;100.00;100587.34;5106003;28;20027;-83
2021/12/29 07:16:32;;;;;;;21.00;11.68;;;;;;;7.68;100.00;100594.38;5092377;28;20440;-83
2021/12/29 07:18:57;;;;;;;20.25;12.02;;;;;;;7.69;100.00;100601.28;5112212;28;20030;-83
2021/12/29 07:21:23;;;;;;;19.33;11.73;;;;;;;7.69;100.00;100602.13;5110854;28;20023;-83
2021/12/29 07:23:50;;;;;;;18.77;11.27;;;;;;;7.68;100.00;100599.59;5111106;28;20047;-83
2021/12/29 07:26:16;;;;;;;19.67;11.45;;;;;;;7.70;100.00;100610.81;5108792;28;20382;-83
2021/12/29 07:28:41;;;;;;;19.80;11.48;;;;;;;7.69;100.00;100615.22;5098609;28;20102;-82
2021/12/29 07:31:13;;;;;;;18.60;12.30;;;;;;;7.69;100.00;100624.84;5091418;28;20501;-83
2021/12/29 07:33:38;;;;;;;19.63;11.60;;;;;;;7.66;100.00;100615.41;5110995;28;20447;-83
2021/12/29 07:36:04;;;;;;;19.38;11.63;;;;;;;7.66;100.00;100622.44;5092509;28;20027;-83
2021/12/29 07:38:29;;;;;;;21.48;11.00;;;;;;;7.68;100.00;100633.66;5091397;28;20019;-83
2021/12/29 07:40:54;;;;;;;18.88;10.60;;;;;;;7.68;100.00;100637.09;5110580;28;20042;-83
2021/12/29 07:43:22;;;;;;;16.98;10.98;;;;;;;7.66;100.00;100632.91;5103958;28;20122;-82
2021/12/29 07:45:48;;;;;;;21.02;10.27;;;;;;;7.68;100.00;100644.13;5108738;27;20027;-83
2021/12/29 07:48:17;;;;;;;18.38;10.95;;;;;;;7.64;100.00;100626.94;5103850;28;20387;-82
2021/12/29 07:50:42;;;;;;;19.05;10.82;;;;;;;7.66;100.00;100625.06;5110343;28;20102;-83
2021/12/29 07:53:07;;;;;;;19.40;10.57;;;;;;;7.65;100.00;100634.69;5109428;28;20107;-83
2021/12/29 07:55:33;;;;;;;18.00;10.20;;;;;;;7.62;100.00;100627.03;5091559;28;20038;-83
2021/12/29 07:57:58;;;;;;;18.45;10.88;;;;;;;7.64;100.00;100621.69;5110039;28;20046;-82
2021/12/29 08:00:25;;;;;;;18.23;11.50;;;;;;;7.65;100.00;100628.59;5098795;28;20039;-82
2021/12/29 08:02:53;;;;;;;19.48;11.13;;;;;;;7.64;100.00;100633.00;5105755;28;20084;-82
2021/12/29 08:05:22;;;;;;;20.25;11.00;;;;;;;7.63;100.00;100631.34;5091109;28;20461;-84
2021/12/29 08:07:48;;;;;;;19.83;10.85;;;;;;;7.63;100.00;100625.25;5108229;28;20464;-84
2021/12/29 08:10:16;;;;;;;21.42;10.60;;;;;;;7.63;100.00;100620.84;5106382;28;20102;-84
2021/12/29 08:12:45;;;;;;;20.20;11.00;;;;;;;7.63;100.00;100641.81;5108465;28;20034;-82
2021/12/29 08:15:14;;;;;;;20.95;11.00;;;;;;;7.60;100.00;100626.25;5109383;28;20080;-83
2021/12/29 08:17:40;;;;;;;19.98;11.13;;;;;;;7.64;100.00;100640.88;5087635;28;20456;-82
2021/12/29 08:20:09;;;;;;;19.10;11.32;;;;;;;7.63;100.00;100635.72;5108969;28;20096;-84
2021/12/29 08:22:34;;;;;;;16.63;10.82;;;;;;;7.62;100.00;100637.50;5089434;28;20023;-82
2021/12/29 08:25:06;;;;;;;17.33;11.40;;;;;;;7.62;100.00;100644.53;5091041;28;20026;-82
2021/12/29 08:27:33;;;;;;;19.27;11.93;;;;;;;7.57;100.00;100628.25;5089521;28;20038;-82
2021/12/29 08:29:59;;;;;;;20.35;11.50;;;;;;;7.62;100.00;100647.13;5109022;28;20046;-83
2021/12/29 08:32:26;;;;;;;19.90;11.93;;;;;;;7.59;100.00;100645.53;5108099;28;20031;-83
2021/12/29 08:34:52;;;;;;;19.25;12.30;;;;;;;7.59;100.00;100650.75;5100427;28;20107;-83
2021/12/29 08:37:17;;;;;;;17.88;11.93;;;;;;;7.59;100.00;100645.53;5103044;28;20110;-84
2021/12/29 08:39:43;;;;;;;18.83;12.10;;;;;;;7.58;100.00;100645.63;5103519;28;20460;-84
2021/12/29 08:42:08;;;;;;;19.77;12.68;;;;;;;7.58;100.00;100643.00;5106251;28;20073;-83
2021/12/29 08:44:34;;;;;;;23.50;12.95;;;;;;;7.58;100.00;100632.53;5085579;28;20023;-83
2021/12/29 08:46:59;;;;;;;21.27;13.55;;;;;;;7.58;100.00;100637.78;5106560;28;20028;-82
2021/12/29 08:49:25;;;;;;;20.92;14.38;;;;;;;7.57;100.00;100636.94;5100643;28;20048;-84
2021/12/29 08:51:50;;;;;;;21.35;14.13;;;;;;;7.54;100.00;100642.38;5104271;28;20031;-83
2021/12/29 08:54:16;;;;;;;21.15;13.93;;;;;;;7.55;100.00;100639.66;5104235;28;20035;-83
2021/12/29 08:56:45;;;;;;;19.27;14.43;;;;;;;7.58;100.00;100643.00;5104414;28;20073;-83
2021/12/29 08:59:13;;;;;;;22.92;15.38;;;;;;;7.53;100.00;100646.78;5098455;28;20058;-83
2021/12/29 09:01:40;;;;;;;21.80;15.23;;;;;;;7.56;100.00;100650.97;5107546;28;20443;-83
2021/12/29 09:04:06;;;;;;;23.00;15.05;;;;;;;7.54;100.00;100651.06;5106991;28;20498;-83
2021/12/29 09:06:32;;;;;;;21.08;15.15;;;;;;;7.54;100.00;100648.44;5106444;28;20330;-83
2021/12/29 09:08:58;;;;;;;24.42;15.52;;;;;;;7.55;100.00;100639.66;5106227;28;20475;-83
2021/12/29 09:11:23;;;;;;;18.80;14.70;;;;;;;7.54;100.00;100634.53;5089135;28;20031;-84
2021/12/29 09:13:48;;;;;;;18.02;14.70;;;;;;;7.58;100.00;100637.78;5108259;28;20069;-82
2021/12/29 09:16:14;;;;;;;21.88;15.27;;;;;;;7.57;100.00;100647.41;5105870;28;20051;-82
2021/12/29 09:18:40;;;;;;;20.45;15.27;;;;;;;7.58;100.00;100643.00;5107663;28;20485;-83
2021/12/29 09:21:12;;;;;;;19.73;14.18;;;;;;;7.59;100.00;100629.81;5108786;28;20023;-76
2021/12/29 09:23:38;;;;;;;19.38;14.57;;;;;;;7.62;100.00;100636.66;5106119;28;20399;-78
2021/12/29 09:26:05;;;;;;;21.05;14.88;;;;;;;7.62;100.00;100636.66;5088524;28;20024;-76
2021/12/29 09:28:31;;;;;;;21.00;14.32;;;;;;;7.63;100.00;100622.63;5089082;28;20107;-77
2021/12/29 09:30:57;;;;;;;23.60;16.05;;;;;;;7.66;100.00;100625.06;5108380;28;20020;-83
2021/12/29 09:33:22;;;;;;;17.10;13.55;;;;;;;7.66;100.00;100625.06;5105973;28;20031;-83
2021/12/29 09:35:52;;;;;;;19.83;14.38;;;;;;;7.68;100.00;100628.41;5088814;28;20112;-83
2021/12/29 09:38:22;;;;;;;19.77;13.80;;;;;;;7.70;100.00;100632.59;5107436;28;20023;-84
2021/12/29 09:40:48;;;;;;;19.10;13.73;;;;;;;7.74;100.00;100635.84;5104989;28;20024;-82
2021/12/29 09:43:15;;;;;;;18.67;13.55;;;;;;;7.75;100.00;100635.75;5109061;28;20476;-83
2021/12/29 09:45:42;;;;;;;18.20;13.65;;;;;;;7.76;100.00;100631.34;5108174;28;20526;-83
2021/12/29 09:48:08;;;;;;;19.02;12.88;;;;;;;7.81;100.00;100639.75;5107340;28;20023;-80
2021/12/29 09:50:34;;;;;;;17.75;12.45;;;;;;;7.81;100.00;100629.28;5089983;28;20019;-83
2021/12/29 09:53:00;;;;;;;16.67;12.05;;;;;;;7.83;100.00;100611.66;5089543;28;20122;-83
2021/12/29 09:55:26;;;;;;;16.60;10.77;;;;;;;7.81;100.00;100600.47;5089977;28;20020;-83
2021/12/29 09:57:54;;;;;;;19.92;12.30;;;;;;;7.82;100.00;100605.59;5105228;28;20502;-83
2021/12/29 10:00:30;;;;;;;17.20;12.20;;;;;;;7.86;100.00;100620.16;5106762;28;20102;-83
2021/12/29 10:02:58;;;;;;;17.70;11.50;;;;;;;7.87;100.00;100618.38;5103551;28;20035;-79
2021/12/29 10:05:27;;;;;;;20.67;11.35;;;;;;;7.91;100.00;100619.03;5085247;28;20016;-80
2021/12/29 10:08:12;;;;;;;16.30;10.60;;;;;;;7.93;100.00;100623.22;5091266;28;20031;-83
2021/12/29 10:10:41;;;;;;;18.13;10.55;;;;;;;7.90;100.00;100618.19;5090445;28;20111;-83
2021/12/29 10:13:08;;;;;;;18.17;9.68;;;;;;;7.94;100.00;100630.13;5097791;28;20023;-83
2021/12/29 10:15:37;;;;;;;15.05;9.77;;;;;;;7.96;100.00;100623.00;5096656;28;20124;-83
2021/12/29 10:18:09;;;;;;;15.63;10.00;;;;;;;7.93;100.00;100617.13;5113375;27;20516;-83
2021/12/29 10:20:58;;;;;;;19.10;9.65;;;;;;;8.02;100.00;100624.41;5091718;28;20142;-83
2021/12/29 10:23:25;;;;;;;16.95;9.50;;;;;;;8.02;100.00;100622.63;5109000;28;20387;-83
2021/12/29 10:25:52;;;;;;;15.25;9.93;;;;;;;8.04;100.00;100612.88;5104282;28;20027;-83
2021/12/29 10:28:23;;;;;;;19.38;9.52;;;;;;;8.03;100.00;100598.09;5111333;28;20034;-80
2021/12/29 10:31:03;;;;;;;17.83;9.57;;;;;;;8.08;100.00;100598.63;5113400;27;20026;-83
2021/12/29 10:33:52;;;;;;;17.45;9.02;;;;;;;8.07;100.00;100589.09;5111454;27;20031;-83
2021/12/29 10:36:21;;;;;;;14.10;8.88;;;;;;;8.10;100.00;100586.25;5106184;28;20039;-84
2021/12/29 10:39:10;;;;;;;15.98;8.35;;;;;;;8.15;100.00;100588.56;5112272;28;20070;-83
2021/12/29 10:42:03;;;;;;;13.73;7.95;;;;;;;8.15;100.00;100589.41;5084917;28;20073;-83
2021/12/29 10:44:48;;;;;;;17.30;7.78;;;;;;;8.17;100.00;100589.28;5112279;28;20023;-84
2021/12/29 10:47:13;;;;;;;13.25;7.30;;;;;;;8.18;100.00;100583.94;5112294;28;20039;-83
2021/12/29 10:50:08;;;;;;;13.65;6.90;;;;;;;8.15;100.00;100575.47;5112880;28;20082;-83
2021/12/29 10:52:44;;;;;;;17.67;7.93;;;;;;;8.21;100.00;100585.53;5093175;28;20039;-83
2021/12/29 10:55:15;;;;;;;13.18;6.53;;;;;;;8.23;100.00;100588.03;5085978;28;20024;-83
2021/12/29 10:57:41;;;;;;;15.88;7.15;;;;;;;8.24;100.00;100579.22;5094104;28;20423;-83
2021/12/29 11:00:14;;;;;;;17.90;6.85;;;;;;;8.24;100.00;100594.94;5090115;28;20036;-83
2021/12/29 11:02:40;;;;;;;14.55;7.30;;;;;;;8.25;100.00;100607.13;5111903;28;20031;-83
2021/12/29 11:05:09;;;;;;;17.35;7.47;;;;;;;8.25;100.00;100613.19;5093822;28;20015;-83
2021/12/29 11:07:37;;;;;;;14.75;6.80;;;;;;;8.26;100.00;100614.88;5104980;28;20039;-84
2021/12/29 11:10:16;;;;;;;18.58;6.82;;;;;;;8.25;100.00;100599.25;5109301;28;20055;-84
2021/12/29 11:12:55;;;;;;;16.35;6.40;;;;;;;8.30;100.00;100597.16;5111327;28;20038;-84
2021/12/29 11:15:29;;;;;;;16.30;6.65;;;;;;;8.27;100.00;100594.75;5103075;28;20028;-84